sensor_id;sensor_type;location;lat;lon;timestamp;P1;durP1;ratioP1;P2;durP2;ratioP2
75716;SDS011;64333;50.138;14.332;2023-08-06T00:00:38;13.18;;;9.02;;
75716;SDS011;64333;50.138;14.332;2023-08-06T00:03:03;12.27;;;8.60;;
75716;SDS011;64333;50.138;14.332;2023-08-06T00:05:29;10.68;;;7.57;;
75716;SDS011;64333;50.138;14.332;2023-08-06T00:07:54;10.67;;;8.17;;
75716;SDS011;64333;50.138;14.332;2023-08-06T00:10:19;13.63;;;8.63;;
75716;SDS011;64333;50.138;14.332;2023-08-06T00:12:44;11.77;;;7.78;;
75716;SDS011;64333;50.138;14.332;2023-08-06T00:15:10;10.77;;;7.32;;
75716;SDS011;64333;50.138;14.332;2023-08-06T00:17:35;12.60;;;7.45;;
75716;SDS011;64333;50.138;14.332;2023-08-06T00:20:01;13.53;;;7.93;;
75716;SDS011;64333;50.138;14.332;2023-08-06T00:22:30;11.25;;;7.88;;
75716;SDS011;64333;50.138;14.332;2023-08-06T00:24:55;9.88;;;7.13;;
75716;SDS011;64333;50.138;14.332;2023-08-06T00:27:22;11.00;;;7.40;;
75716;SDS011;64333;50.138;14.332;2023-08-06T00:29:47;11.87;;;8.63;;
75716;SDS011;64333;50.138;14.332;2023-08-06T00:32:12;11.93;;;7.50;;
75716;SDS011;64333;50.138;14.332;2023-08-06T00:34:38;11.07;;;8.90;;
75716;SDS011;64333;50.138;14.332;2023-08-06T00:37:03;12.23;;;8.53;;
75716;SDS011;64333;50.138;14.332;2023-08-06T00:39:28;12.10;;;8.40;;
75716;SDS011;64333;50.138;14.332;2023-08-06T00:41:53;12.93;;;8.07;;
75716;SDS011;64333;50.138;14.332;2023-08-06T00:44:19;12.70;;;7.85;;
75716;SDS011;64333;50.138;14.332;2023-08-06T00:46:44;10.27;;;7.27;;
75716;SDS011;64333;50.138;14.332;2023-08-06T00:49:10;11.00;;;7.67;;
75716;SDS011;64333;50.138;14.332;2023-08-06T00:51:35;12.00;;;9.10;;
75716;SDS011;64333;50.138;14.332;2023-08-06T00:54:01;12.35;;;8.95;;
75716;SDS011;64333;50.138;14.332;2023-08-06T00:56:26;13.00;;;8.52;;
75716;SDS011;64333;50.138;14.332;2023-08-06T00:58:51;12.32;;;9.20;;
75716;SDS011;64333;50.138;14.332;2023-08-06T01:01:17;11.63;;;7.75;;
75716;SDS011;64333;50.138;14.332;2023-08-06T01:03:42;12.47;;;8.23;;
75716;SDS011;64333;50.138;14.332;2023-08-06T01:06:07;13.77;;;9.60;;
75716;SDS011;64333;50.138;14.332;2023-08-06T01:13:43;13.47;;;9.33;;
75716;SDS011;64333;50.138;14.332;2023-08-06T01:16:11;13.20;;;8.75;;
75716;SDS011;64333;50.138;14.332;2023-08-06T01:18:36;11.70;;;7.87;;
75716;SDS011;64333;50.138;14.332;2023-08-06T01:21:04;12.40;;;8.43;;
75716;SDS011;64333;50.138;14.332;2023-08-06T01:23:29;11.23;;;8.48;;
75716;SDS011;64333;50.138;14.332;2023-08-06T01:28:24;11.63;;;8.27;;
75716;SDS011;64333;50.138;14.332;2023-08-06T01:30:52;11.57;;;8.70;;
75716;SDS011;64333;50.138;14.332;2023-08-06T01:33:20;11.63;;;8.68;;
75716;SDS011;64333;50.138;14.332;2023-08-06T01:35:46;10.63;;;8.15;;
75716;SDS011;64333;50.138;14.332;2023-08-06T01:38:12;11.50;;;8.13;;
75716;SDS011;64333;50.138;14.332;2023-08-06T01:40:37;10.83;;;7.40;;
75716;SDS011;64333;50.138;14.332;2023-08-06T01:43:02;10.67;;;7.27;;
75716;SDS011;64333;50.138;14.332;2023-08-06T01:45:28;9.75;;;7.35;;
75716;SDS011;64333;50.138;14.332;2023-08-06T01:47:53;11.33;;;7.67;;
75716;SDS011;64333;50.138;14.332;2023-08-06T01:50:18;11.13;;;6.90;;
75716;SDS011;64333;50.138;14.332;2023-08-06T01:52:43;11.38;;;6.72;;
75716;SDS011;64333;50.138;14.332;2023-08-06T01:55:09;9.43;;;6.73;;
75716;SDS011;64333;50.138;14.332;2023-08-06T01:57:34;9.97;;;7.10;;
75716;SDS011;64333;50.138;14.332;2023-08-06T01:59:59;9.70;;;6.90;;
75716;SDS011;64333;50.138;14.332;2023-08-06T02:02:24;7.97;;;6.50;;
75716;SDS011;64333;50.138;14.332;2023-08-06T02:04:50;9.40;;;6.30;;
75716;SDS011;64333;50.138;14.332;2023-08-06T02:07:15;8.37;;;6.17;;
75716;SDS011;64333;50.138;14.332;2023-08-06T02:09:40;10.73;;;6.73;;
75716;SDS011;64333;50.138;14.332;2023-08-06T02:12:05;10.38;;;6.95;;
75716;SDS011;64333;50.138;14.332;2023-08-06T02:14:31;9.75;;;6.65;;
75716;SDS011;64333;50.138;14.332;2023-08-06T02:16:56;10.35;;;7.13;;
75716;SDS011;64333;50.138;14.332;2023-08-06T02:19:21;10.37;;;7.37;;
75716;SDS011;64333;50.138;14.332;2023-08-06T02:21:47;10.70;;;7.50;;
75716;SDS011;64333;50.138;14.332;2023-08-06T02:24:12;12.33;;;7.40;;
75716;SDS011;64333;50.138;14.332;2023-08-06T02:26:37;10.37;;;7.00;;
75716;SDS011;64333;50.138;14.332;2023-08-06T02:29:02;10.33;;;6.93;;
75716;SDS011;64333;50.138;14.332;2023-08-06T02:31:28;9.73;;;7.17;;
75716;SDS011;64333;50.138;14.332;2023-08-06T02:33:53;10.37;;;7.10;;
75716;SDS011;64333;50.138;14.332;2023-08-06T02:36:19;9.88;;;7.25;;
75716;SDS011;64333;50.138;14.332;2023-08-06T02:38:44;11.53;;;7.37;;
75716;SDS011;64333;50.138;14.332;2023-08-06T02:41:09;11.67;;;6.80;;
75716;SDS011;64333;50.138;14.332;2023-08-06T02:43:34;10.10;;;7.72;;
75716;SDS011;64333;50.138;14.332;2023-08-06T02:46:00;8.70;;;6.30;;
75716;SDS011;64333;50.138;14.332;2023-08-06T02:48:25;9.80;;;6.03;;
75716;SDS011;64333;50.138;14.332;2023-08-06T02:50:51;8.60;;;6.10;;
75716;SDS011;64333;50.138;14.332;2023-08-06T02:53:16;10.30;;;6.32;;
75716;SDS011;64333;50.138;14.332;2023-08-06T02:55:45;9.13;;;6.38;;
75716;SDS011;64333;50.138;14.332;2023-08-06T02:58:11;10.32;;;6.40;;
75716;SDS011;64333;50.138;14.332;2023-08-06T03:00:36;8.83;;;5.90;;
75716;SDS011;64333;50.138;14.332;2023-08-06T03:03:01;9.50;;;6.93;;
75716;SDS011;64333;50.138;14.332;2023-08-06T03:05:27;9.05;;;6.43;;
75716;SDS011;64333;50.138;14.332;2023-08-06T03:07:52;8.75;;;6.53;;
75716;SDS011;64333;50.138;14.332;2023-08-06T03:10:18;9.20;;;6.37;;
75716;SDS011;64333;50.138;14.332;2023-08-06T03:12:43;9.10;;;5.82;;
75716;SDS011;64333;50.138;14.332;2023-08-06T03:15:08;8.60;;;6.43;;
75716;SDS011;64333;50.138;14.332;2023-08-06T03:17:34;9.30;;;6.35;;
75716;SDS011;64333;50.138;14.332;2023-08-06T03:19:59;8.07;;;5.97;;
75716;SDS011;64333;50.138;14.332;2023-08-06T03:22:24;8.73;;;5.83;;
75716;SDS011;64333;50.138;14.332;2023-08-06T03:24:50;8.27;;;5.90;;
75716;SDS011;64333;50.138;14.332;2023-08-06T03:27:15;7.95;;;6.00;;
75716;SDS011;64333;50.138;14.332;2023-08-06T03:29:40;8.00;;;5.67;;
75716;SDS011;64333;50.138;14.332;2023-08-06T03:32:06;10.27;;;6.60;;
75716;SDS011;64333;50.138;14.332;2023-08-06T03:34:31;7.32;;;5.85;;
75716;SDS011;64333;50.138;14.332;2023-08-06T03:36:56;7.60;;;5.60;;
75716;SDS011;64333;50.138;14.332;2023-08-06T03:39:21;9.30;;;5.50;;
75716;SDS011;64333;50.138;14.332;2023-08-06T03:41:47;9.30;;;5.77;;
75716;SDS011;64333;50.138;14.332;2023-08-06T03:44:12;11.63;;;6.73;;
75716;SDS011;64333;50.138;14.332;2023-08-06T03:46:37;8.73;;;5.90;;
75716;SDS011;64333;50.138;14.332;2023-08-06T03:49:02;8.33;;;5.43;;
75716;SDS011;64333;50.138;14.332;2023-08-06T03:51:28;8.87;;;5.23;;
75716;SDS011;64333;50.138;14.332;2023-08-06T03:53:53;9.03;;;5.43;;
75716;SDS011;64333;50.138;14.332;2023-08-06T03:56:18;10.10;;;5.97;;
75716;SDS011;64333;50.138;14.332;2023-08-06T03:58:43;8.27;;;6.00;;
75716;SDS011;64333;50.138;14.332;2023-08-06T04:01:08;9.37;;;6.10;;
75716;SDS011;64333;50.138;14.332;2023-08-06T04:03:34;8.43;;;6.13;;
75716;SDS011;64333;50.138;14.332;2023-08-06T04:05:59;10.33;;;7.27;;
75716;SDS011;64333;50.138;14.332;2023-08-06T04:08:26;10.48;;;6.43;;
75716;SDS011;64333;50.138;14.332;2023-08-06T04:10:51;9.20;;;5.90;;
75716;SDS011;64333;50.138;14.332;2023-08-06T04:13:17;10.90;;;6.72;;
75716;SDS011;64333;50.138;14.332;2023-08-06T04:15:42;11.87;;;7.43;;
75716;SDS011;64333;50.138;14.332;2023-08-06T04:18:07;9.57;;;6.90;;
75716;SDS011;64333;50.138;14.332;2023-08-06T04:20:33;11.13;;;6.70;;
75716;SDS011;64333;50.138;14.332;2023-08-06T04:22:58;11.10;;;7.00;;
75716;SDS011;64333;50.138;14.332;2023-08-06T04:25:23;12.53;;;8.00;;
75716;SDS011;64333;50.138;14.332;2023-08-06T04:27:48;17.27;;;8.43;;
75716;SDS011;64333;50.138;14.332;2023-08-06T04:30:14;11.13;;;7.68;;
75716;SDS011;64333;50.138;14.332;2023-08-06T04:32:39;12.00;;;7.70;;
75716;SDS011;64333;50.138;14.332;2023-08-06T04:35:05;13.88;;;8.55;;
75716;SDS011;64333;50.138;14.332;2023-08-06T04:37:30;12.95;;;7.55;;
75716;SDS011;64333;50.138;14.332;2023-08-06T04:39:55;11.10;;;7.73;;
75716;SDS011;64333;50.138;14.332;2023-08-06T04:42:21;12.87;;;7.57;;
75716;SDS011;64333;50.138;14.332;2023-08-06T04:44:46;13.73;;;7.73;;
75716;SDS011;64333;50.138;14.332;2023-08-06T04:47:11;13.23;;;7.33;;
75716;SDS011;64333;50.138;14.332;2023-08-06T04:49:36;10.57;;;7.00;;
75716;SDS011;64333;50.138;14.332;2023-08-06T04:52:01;10.40;;;7.50;;
75716;SDS011;64333;50.138;14.332;2023-08-06T04:54:27;11.27;;;7.57;;
75716;SDS011;64333;50.138;14.332;2023-08-06T04:56:52;10.40;;;6.30;;
75716;SDS011;64333;50.138;14.332;2023-08-06T04:59:17;9.53;;;6.90;;
75716;SDS011;64333;50.138;14.332;2023-08-06T05:01:42;9.07;;;6.67;;
75716;SDS011;64333;50.138;14.332;2023-08-06T05:04:08;9.43;;;6.23;;
75716;SDS011;64333;50.138;14.332;2023-08-06T05:06:33;9.40;;;5.90;;
75716;SDS011;64333;50.138;14.332;2023-08-06T05:08:58;7.05;;;5.53;;
75716;SDS011;64333;50.138;14.332;2023-08-06T05:11:24;7.33;;;4.80;;
75716;SDS011;64333;50.138;14.332;2023-08-06T05:13:49;6.57;;;5.35;;
75716;SDS011;64333;50.138;14.332;2023-08-06T05:16:14;8.87;;;5.33;;
75716;SDS011;64333;50.138;14.332;2023-08-06T05:18:39;8.23;;;5.27;;
75716;SDS011;64333;50.138;14.332;2023-08-06T05:21:06;7.28;;;5.07;;
75716;SDS011;64333;50.138;14.332;2023-08-06T05:23:31;8.23;;;5.13;;
75716;SDS011;64333;50.138;14.332;2023-08-06T05:25:56;5.87;;;4.67;;
75716;SDS011;64333;50.138;14.332;2023-08-06T05:28:21;6.77;;;5.20;;
75716;SDS011;64333;50.138;14.332;2023-08-06T05:30:46;7.17;;;4.90;;
75716;SDS011;64333;50.138;14.332;2023-08-06T05:33:12;6.20;;;4.60;;
75716;SDS011;64333;50.138;14.332;2023-08-06T05:35:37;7.40;;;4.70;;
75716;SDS011;64333;50.138;14.332;2023-08-06T05:38:02;5.47;;;4.60;;
75716;SDS011;64333;50.138;14.332;2023-08-06T05:40:27;4.23;;;3.60;;
75716;SDS011;64333;50.138;14.332;2023-08-06T05:42:53;5.53;;;4.27;;
75716;SDS011;64333;50.138;14.332;2023-08-06T05:45:19;5.38;;;3.58;;
75716;SDS011;64333;50.138;14.332;2023-08-06T05:47:44;5.00;;;3.38;;
75716;SDS011;64333;50.138;14.332;2023-08-06T05:50:09;4.47;;;3.63;;
75716;SDS011;64333;50.138;14.332;2023-08-06T05:52:34;4.37;;;2.93;;
75716;SDS011;64333;50.138;14.332;2023-08-06T05:55:00;4.90;;;3.40;;
75716;SDS011;64333;50.138;14.332;2023-08-06T05:57:25;4.47;;;3.30;;
75716;SDS011;64333;50.138;14.332;2023-08-06T05:59:50;4.93;;;3.33;;
75716;SDS011;64333;50.138;14.332;2023-08-06T06:02:15;4.67;;;2.90;;
75716;SDS011;64333;50.138;14.332;2023-08-06T06:04:42;4.35;;;3.30;;
75716;SDS011;64333;50.138;14.332;2023-08-06T06:07:07;3.88;;;3.17;;
75716;SDS011;64333;50.138;14.332;2023-08-06T06:09:32;3.37;;;3.07;;
75716;SDS011;64333;50.138;14.332;2023-08-06T06:11:58;3.67;;;2.87;;
75716;SDS011;64333;50.138;14.332;2023-08-06T06:14:23;3.90;;;3.10;;
75716;SDS011;64333;50.138;14.332;2023-08-06T06:16:48;3.10;;;2.63;;
75716;SDS011;64333;50.138;14.332;2023-08-06T06:19:13;3.23;;;2.53;;
75716;SDS011;64333;50.138;14.332;2023-08-06T06:21:39;3.00;;;2.17;;
75716;SDS011;64333;50.138;14.332;2023-08-06T06:24:05;2.53;;;2.15;;
75716;SDS011;64333;50.138;14.332;2023-08-06T06:26:30;2.30;;;1.85;;
75716;SDS011;64333;50.138;14.332;2023-08-06T06:28:56;2.75;;;2.30;;
75716;SDS011;64333;50.138;14.332;2023-08-06T06:31:21;4.70;;;2.97;;
75716;SDS011;64333;50.138;14.332;2023-08-06T06:33:46;3.57;;;2.70;;
75716;SDS011;64333;50.138;14.332;2023-08-06T06:36:11;5.13;;;3.30;;
75716;SDS011;64333;50.138;14.332;2023-08-06T06:38:37;4.22;;;3.83;;
75716;SDS011;64333;50.138;14.332;2023-08-06T06:41:03;4.10;;;3.50;;
75716;SDS011;64333;50.138;14.332;2023-08-06T06:43:28;4.43;;;3.50;;
75716;SDS011;64333;50.138;14.332;2023-08-06T06:45:57;4.90;;;4.43;;
75716;SDS011;64333;50.138;14.332;2023-08-06T06:48:26;4.65;;;3.67;;
75716;SDS011;64333;50.138;14.332;2023-08-06T06:50:52;4.45;;;3.95;;
75716;SDS011;64333;50.138;14.332;2023-08-06T06:53:17;4.77;;;4.07;;
75716;SDS011;64333;50.138;14.332;2023-08-06T06:55:42;5.70;;;4.33;;
75716;SDS011;64333;50.138;14.332;2023-08-06T06:58:07;4.95;;;4.25;;
75716;SDS011;64333;50.138;14.332;2023-08-06T07:00:35;5.38;;;4.05;;
75716;SDS011;64333;50.138;14.332;2023-08-06T07:03:00;6.20;;;5.13;;
75716;SDS011;64333;50.138;14.332;2023-08-06T07:05:25;6.27;;;4.60;;
75716;SDS011;64333;50.138;14.332;2023-08-06T07:07:51;7.45;;;4.85;;
75716;SDS011;64333;50.138;14.332;2023-08-06T07:10:17;6.93;;;4.95;;
75716;SDS011;64333;50.138;14.332;2023-08-06T07:12:42;7.60;;;5.27;;
75716;SDS011;64333;50.138;14.332;2023-08-06T07:15:07;5.40;;;4.87;;
75716;SDS011;64333;50.138;14.332;2023-08-06T07:17:33;11.43;;;5.53;;
75716;SDS011;64333;50.138;14.332;2023-08-06T07:19:58;6.57;;;5.10;;
75716;SDS011;64333;50.138;14.332;2023-08-06T07:22:23;6.33;;;5.63;;
75716;SDS011;64333;50.138;14.332;2023-08-06T07:24:48;6.00;;;4.72;;
75716;SDS011;64333;50.138;14.332;2023-08-06T07:27:14;7.33;;;5.57;;
75716;SDS011;64333;50.138;14.332;2023-08-06T07:29:39;8.32;;;5.60;;
75716;SDS011;64333;50.138;14.332;2023-08-06T07:32:06;8.13;;;6.00;;
75716;SDS011;64333;50.138;14.332;2023-08-06T07:34:31;6.55;;;5.85;;
75716;SDS011;64333;50.138;14.332;2023-08-06T07:36:56;8.87;;;6.03;;
75716;SDS011;64333;50.138;14.332;2023-08-06T07:39:21;7.97;;;5.83;;
75716;SDS011;64333;50.138;14.332;2023-08-06T07:41:47;8.15;;;6.32;;
75716;SDS011;64333;50.138;14.332;2023-08-06T07:44:13;8.00;;;5.97;;
75716;SDS011;64333;50.138;14.332;2023-08-06T07:46:38;7.30;;;6.10;;
75716;SDS011;64333;50.138;14.332;2023-08-06T07:49:04;8.32;;;7.40;;
75716;SDS011;64333;50.138;14.332;2023-08-06T07:51:29;7.97;;;6.07;;
75716;SDS011;64333;50.138;14.332;2023-08-06T07:53:54;8.10;;;6.17;;
75716;SDS011;64333;50.138;14.332;2023-08-06T07:56:19;7.73;;;6.60;;
75716;SDS011;64333;50.138;14.332;2023-08-06T07:58:45;11.13;;;6.60;;
75716;SDS011;64333;50.138;14.332;2023-08-06T08:01:10;8.07;;;6.47;;
75716;SDS011;64333;50.138;14.332;2023-08-06T08:03:35;7.77;;;5.67;;
75716;SDS011;64333;50.138;14.332;2023-08-06T08:06:01;8.33;;;6.80;;
75716;SDS011;64333;50.138;14.332;2023-08-06T08:08:26;8.70;;;6.77;;
75716;SDS011;64333;50.138;14.332;2023-08-06T08:10:51;7.03;;;5.70;;
75716;SDS011;64333;50.138;14.332;2023-08-06T08:13:16;8.32;;;6.18;;
75716;SDS011;64333;50.138;14.332;2023-08-06T08:15:42;7.53;;;5.73;;
75716;SDS011;64333;50.138;14.332;2023-08-06T08:18:07;7.17;;;6.47;;
75716;SDS011;64333;50.138;14.332;2023-08-06T08:20:32;6.93;;;6.00;;
75716;SDS011;64333;50.138;14.332;2023-08-06T08:23:00;6.65;;;5.63;;
75716;SDS011;64333;50.138;14.332;2023-08-06T08:25:25;6.05;;;4.97;;
75716;SDS011;64333;50.138;14.332;2023-08-06T08:27:51;5.85;;;5.13;;
75716;SDS011;64333;50.138;14.332;2023-08-06T08:30:16;5.97;;;4.70;;
75716;SDS011;64333;50.138;14.332;2023-08-06T08:32:42;5.73;;;4.33;;
75716;SDS011;64333;50.138;14.332;2023-08-06T08:35:07;6.37;;;4.70;;
75716;SDS011;64333;50.138;14.332;2023-08-06T08:37:32;6.78;;;4.63;;
75716;SDS011;64333;50.138;14.332;2023-08-06T08:39:58;7.10;;;4.60;;
75716;SDS011;64333;50.138;14.332;2023-08-06T08:42:23;6.07;;;4.80;;
75716;SDS011;64333;50.138;14.332;2023-08-06T08:44:48;5.35;;;4.85;;
75716;SDS011;64333;50.138;14.332;2023-08-06T08:47:13;4.88;;;4.38;;
75716;SDS011;64333;50.138;14.332;2023-08-06T08:49:41;5.88;;;3.90;;
75716;SDS011;64333;50.138;14.332;2023-08-06T08:52:07;5.32;;;3.97;;
75716;SDS011;64333;50.138;14.332;2023-08-06T08:54:38;3.85;;;2.95;;
75716;SDS011;64333;50.138;14.332;2023-08-06T08:57:03;3.13;;;2.67;;
75716;SDS011;64333;50.138;14.332;2023-08-06T08:59:28;3.25;;;2.72;;
75716;SDS011;64333;50.138;14.332;2023-08-06T09:01:54;4.55;;;2.88;;
75716;SDS011;64333;50.138;14.332;2023-08-06T09:04:19;3.83;;;2.80;;
75716;SDS011;64333;50.138;14.332;2023-08-06T09:06:46;3.03;;;2.72;;
75716;SDS011;64333;50.138;14.332;2023-08-06T09:09:12;2.83;;;2.10;;
75716;SDS011;64333;50.138;14.332;2023-08-06T09:11:44;3.03;;;2.55;;
75716;SDS011;64333;50.138;14.332;2023-08-06T09:14:10;3.33;;;3.03;;
75716;SDS011;64333;50.138;14.332;2023-08-06T09:16:36;2.90;;;2.60;;
75716;SDS011;64333;50.138;14.332;2023-08-06T09:19:11;2.63;;;2.30;;
75716;SDS011;64333;50.138;14.332;2023-08-06T09:21:37;3.35;;;2.92;;
75716;SDS011;64333;50.138;14.332;2023-08-06T09:24:10;3.35;;;2.72;;
75716;SDS011;64333;50.138;14.332;2023-08-06T09:26:42;3.53;;;3.00;;
75716;SDS011;64333;50.138;14.332;2023-08-06T09:29:08;5.40;;;2.72;;
75716;SDS011;64333;50.138;14.332;2023-08-06T09:31:46;4.15;;;3.50;;
75716;SDS011;64333;50.138;14.332;2023-08-06T09:34:12;3.33;;;2.83;;
75716;SDS011;64333;50.138;14.332;2023-08-06T09:36:40;3.65;;;3.17;;
75716;SDS011;64333;50.138;14.332;2023-08-06T09:39:12;3.30;;;3.00;;
75716;SDS011;64333;50.138;14.332;2023-08-06T09:41:37;3.30;;;3.00;;
75716;SDS011;64333;50.138;14.332;2023-08-06T09:44:03;3.67;;;2.80;;
75716;SDS011;64333;50.138;14.332;2023-08-06T09:46:28;3.43;;;2.80;;
75716;SDS011;64333;50.138;14.332;2023-08-06T09:48:53;3.10;;;2.80;;
75716;SDS011;64333;50.138;14.332;2023-08-06T09:51:18;3.57;;;2.50;;
75716;SDS011;64333;50.138;14.332;2023-08-06T09:53:44;2.50;;;2.30;;
75716;SDS011;64333;50.138;14.332;2023-08-06T09:56:09;3.47;;;2.50;;
75716;SDS011;64333;50.138;14.332;2023-08-06T09:58:36;3.08;;;2.42;;
75716;SDS011;64333;50.138;14.332;2023-08-06T10:01:01;2.40;;;2.20;;
75716;SDS011;64333;50.138;14.332;2023-08-06T10:03:27;4.05;;;2.58;;
75716;SDS011;64333;50.138;14.332;2023-08-06T10:05:55;3.65;;;2.20;;
75716;SDS011;64333;50.138;14.332;2023-08-06T10:08:20;2.65;;;2.15;;
75716;SDS011;64333;50.138;14.332;2023-08-06T10:10:45;2.57;;;2.37;;
75716;SDS011;64333;50.138;14.332;2023-08-06T10:13:10;3.17;;;2.10;;
75716;SDS011;64333;50.138;14.332;2023-08-06T10:15:36;2.22;;;2.00;;
75716;SDS011;64333;50.138;14.332;2023-08-06T10:18:03;2.22;;;2.03;;
75716;SDS011;64333;50.138;14.332;2023-08-06T10:20:33;3.47;;;2.30;;
75716;SDS011;64333;50.138;14.332;2023-08-06T10:23:00;3.22;;;2.35;;
75716;SDS011;64333;50.138;14.332;2023-08-06T10:25:25;3.08;;;2.40;;
75716;SDS011;64333;50.138;14.332;2023-08-06T10:27:54;2.90;;;2.50;;
75716;SDS011;64333;50.138;14.332;2023-08-06T10:30:23;3.95;;;2.80;;
75716;SDS011;64333;50.138;14.332;2023-08-06T10:32:49;3.40;;;2.58;;
75716;SDS011;64333;50.138;14.332;2023-08-06T10:37:53;1.67;;;1.58;;
75716;SDS011;64333;50.138;14.332;2023-08-06T10:40:21;2.17;;;1.87;;
75716;SDS011;64333;50.138;14.332;2023-08-06T10:42:46;5.10;;;2.20;;
75716;SDS011;64333;50.138;14.332;2023-08-06T10:45:12;2.37;;;2.10;;
75716;SDS011;64333;50.138;14.332;2023-08-06T10:47:41;2.13;;;1.73;;
75716;SDS011;64333;50.138;14.332;2023-08-06T10:50:07;2.47;;;1.98;;
75716;SDS011;64333;50.138;14.332;2023-08-06T10:52:33;2.95;;;2.22;;
75716;SDS011;64333;50.138;14.332;2023-08-06T10:54:58;1.88;;;1.75;;
75716;SDS011;64333;50.138;14.332;2023-08-06T10:57:24;1.77;;;1.60;;
75716;SDS011;64333;50.138;14.332;2023-08-06T10:59:49;3.73;;;2.10;;
75716;SDS011;64333;50.138;14.332;2023-08-06T11:02:14;2.57;;;1.90;;
75716;SDS011;64333;50.138;14.332;2023-08-06T11:04:40;2.23;;;2.03;;
75716;SDS011;64333;50.138;14.332;2023-08-06T11:07:06;2.83;;;1.60;;
75716;SDS011;64333;50.138;14.332;2023-08-06T11:09:32;2.03;;;1.60;;
75716;SDS011;64333;50.138;14.332;2023-08-06T11:11:57;2.63;;;1.80;;
75716;SDS011;64333;50.138;14.332;2023-08-06T11:14:22;1.83;;;1.67;;
75716;SDS011;64333;50.138;14.332;2023-08-06T11:16:47;2.30;;;2.00;;
75716;SDS011;64333;50.138;14.332;2023-08-06T11:19:13;2.67;;;2.20;;
75716;SDS011;64333;50.138;14.332;2023-08-06T11:21:40;2.45;;;1.80;;
75716;SDS011;64333;50.138;14.332;2023-08-06T11:24:05;1.77;;;1.35;;
75716;SDS011;64333;50.138;14.332;2023-08-06T11:26:31;2.20;;;1.58;;
75716;SDS011;64333;50.138;14.332;2023-08-06T11:28:56;1.80;;;1.70;;
75716;SDS011;64333;50.138;14.332;2023-08-06T11:31:22;1.77;;;1.63;;
75716;SDS011;64333;50.138;14.332;2023-08-06T11:33:47;2.38;;;2.00;;
75716;SDS011;64333;50.138;14.332;2023-08-06T11:36:13;2.70;;;2.33;;
75716;SDS011;64333;50.138;14.332;2023-08-06T11:38:38;2.07;;;1.87;;
75716;SDS011;64333;50.138;14.332;2023-08-06T11:41:03;4.27;;;2.87;;
75716;SDS011;64333;50.138;14.332;2023-08-06T11:43:30;2.60;;;2.20;;
75716;SDS011;64333;50.138;14.332;2023-08-06T11:45:56;3.13;;;2.50;;
75716;SDS011;64333;50.138;14.332;2023-08-06T11:48:21;3.60;;;3.30;;
75716;SDS011;64333;50.138;14.332;2023-08-06T11:50:46;6.60;;;4.38;;
75716;SDS011;64333;50.138;14.332;2023-08-06T11:53:12;5.57;;;3.60;;
75716;SDS011;64333;50.138;14.332;2023-08-06T11:55:38;5.35;;;3.53;;
75716;SDS011;64333;50.138;14.332;2023-08-06T11:58:03;3.47;;;2.88;;
75716;SDS011;64333;50.138;14.332;2023-08-06T12:00:31;3.55;;;3.05;;
75716;SDS011;64333;50.138;14.332;2023-08-06T12:02:57;3.53;;;2.97;;
75716;SDS011;64333;50.138;14.332;2023-08-06T12:05:23;4.55;;;3.30;;
75716;SDS011;64333;50.138;14.332;2023-08-06T12:07:52;4.43;;;3.60;;
75716;SDS011;64333;50.138;14.332;2023-08-06T12:10:18;2.70;;;2.50;;
75716;SDS011;64333;50.138;14.332;2023-08-06T12:12:44;4.78;;;3.85;;
75716;SDS011;64333;50.138;14.332;2023-08-06T12:15:10;3.50;;;2.42;;
75716;SDS011;64333;50.138;14.332;2023-08-06T12:17:35;9.80;;;4.20;;
75716;SDS011;64333;50.138;14.332;2023-08-06T12:20:12;4.95;;;2.20;;
75716;SDS011;64333;50.138;14.332;2023-08-06T12:22:46;3.45;;;2.58;;
75716;SDS011;64333;50.138;14.332;2023-08-06T12:25:12;2.63;;;2.00;;
75716;SDS011;64333;50.138;14.332;2023-08-06T12:27:38;2.55;;;1.70;;
75716;SDS011;64333;50.138;14.332;2023-08-06T12:30:04;1.98;;;1.77;;
75716;SDS011;64333;50.138;14.332;2023-08-06T12:32:29;2.42;;;1.65;;
75716;SDS011;64333;50.138;14.332;2023-08-06T12:34:55;2.10;;;1.90;;
75716;SDS011;64333;50.138;14.332;2023-08-06T12:37:21;3.03;;;2.37;;
75716;SDS011;64333;50.138;14.332;2023-08-06T12:39:46;2.47;;;2.28;;
75716;SDS011;64333;50.138;14.332;2023-08-06T12:42:12;3.88;;;2.38;;
75716;SDS011;64333;50.138;14.332;2023-08-06T12:44:40;5.97;;;4.72;;
75716;SDS011;64333;50.138;14.332;2023-08-06T12:47:08;2.83;;;2.20;;
75716;SDS011;64333;50.138;14.332;2023-08-06T12:49:33;2.40;;;1.90;;
75716;SDS011;64333;50.138;14.332;2023-08-06T12:51:58;2.73;;;2.43;;
75716;SDS011;64333;50.138;14.332;2023-08-06T12:54:27;2.70;;;2.50;;
75716;SDS011;64333;50.138;14.332;2023-08-06T12:56:52;2.88;;;2.63;;
75716;SDS011;64333;50.138;14.332;2023-08-06T12:59:18;4.13;;;3.00;;
75716;SDS011;64333;50.138;14.332;2023-08-06T13:01:43;8.50;;;6.53;;
75716;SDS011;64333;50.138;14.332;2023-08-06T13:04:09;4.85;;;3.80;;
75716;SDS011;64333;50.138;14.332;2023-08-06T13:06:34;3.35;;;2.50;;
75716;SDS011;64333;50.138;14.332;2023-08-06T13:09:04;2.20;;;2.00;;
75716;SDS011;64333;50.138;14.332;2023-08-06T13:11:30;2.78;;;2.20;;
75716;SDS011;64333;50.138;14.332;2023-08-06T13:13:59;2.35;;;2.10;;
75716;SDS011;64333;50.138;14.332;2023-08-06T13:16:24;2.15;;;1.88;;
75716;SDS011;64333;50.138;14.332;2023-08-06T13:18:50;2.57;;;2.37;;
75716;SDS011;64333;50.138;14.332;2023-08-06T13:21:15;2.17;;;1.90;;
75716;SDS011;64333;50.138;14.332;2023-08-06T13:23:40;2.47;;;2.13;;
75716;SDS011;64333;50.138;14.332;2023-08-06T13:26:06;2.13;;;1.50;;
75716;SDS011;64333;50.138;14.332;2023-08-06T13:28:31;2.10;;;1.80;;
75716;SDS011;64333;50.138;14.332;2023-08-06T13:30:56;1.93;;;1.73;;
75716;SDS011;64333;50.138;14.332;2023-08-06T13:33:21;1.80;;;1.53;;
75716;SDS011;64333;50.138;14.332;2023-08-06T13:35:46;2.80;;;2.20;;
75716;SDS011;64333;50.138;14.332;2023-08-06T13:38:12;2.25;;;1.80;;
75716;SDS011;64333;50.138;14.332;2023-08-06T13:40:37;4.10;;;2.50;;
75716;SDS011;64333;50.138;14.332;2023-08-06T13:43:02;2.72;;;2.03;;
75716;SDS011;64333;50.138;14.332;2023-08-06T13:45:28;1.70;;;1.60;;
75716;SDS011;64333;50.138;14.332;2023-08-06T13:47:54;2.80;;;2.20;;
75716;SDS011;64333;50.138;14.332;2023-08-06T13:50:20;1.98;;;1.77;;
75716;SDS011;64333;50.138;14.332;2023-08-06T13:52:47;2.70;;;2.08;;
75716;SDS011;64333;50.138;14.332;2023-08-06T13:55:12;2.10;;;1.90;;
75716;SDS011;64333;50.138;14.332;2023-08-06T13:57:37;2.10;;;1.90;;
75716;SDS011;64333;50.138;14.332;2023-08-06T14:00:03;2.17;;;1.97;;
75716;SDS011;64333;50.138;14.332;2023-08-06T14:02:28;4.05;;;2.13;;
75716;SDS011;64333;50.138;14.332;2023-08-06T14:04:54;4.32;;;2.00;;
75716;SDS011;64333;50.138;14.332;2023-08-06T14:07:19;2.20;;;1.70;;
75716;SDS011;64333;50.138;14.332;2023-08-06T14:09:45;1.80;;;1.60;;
75716;SDS011;64333;50.138;14.332;2023-08-06T14:12:12;2.25;;;1.50;;
75716;SDS011;64333;50.138;14.332;2023-08-06T14:14:37;2.60;;;1.50;;
75716;SDS011;64333;50.138;14.332;2023-08-06T14:17:02;2.13;;;1.92;;
75716;SDS011;64333;50.138;14.332;2023-08-06T14:19:27;2.00;;;1.80;;
75716;SDS011;64333;50.138;14.332;2023-08-06T14:21:54;2.22;;;1.60;;
75716;SDS011;64333;50.138;14.332;2023-08-06T14:24:20;1.58;;;1.30;;
75716;SDS011;64333;50.138;14.332;2023-08-06T14:26:45;1.67;;;1.57;;
75716;SDS011;64333;50.138;14.332;2023-08-06T14:29:10;2.90;;;1.90;;
75716;SDS011;64333;50.138;14.332;2023-08-06T14:31:36;2.00;;;1.20;;